sensor_id;sensor_type;location;lat;lon;timestamp;pressure;altitude;pressure_sealevel;temperature;humidity
64019;BME280;66942;52.138;5.216;2023-06-26T00:02:14;101237.0;;;29.0;44.89
64019;BME280;66942;52.138;5.216;2023-06-26T00:03:50;101238.0;;;29.04;44.64
64019;BME280;66942;52.138;5.216;2023-06-26T00:05:26;101240.0;;;29.01;45.09
64019;BME280;66942;52.138;5.216;2023-06-26T00:07:03;101240.0;;;29.05;45.3
64019;BME280;66942;52.138;5.216;2023-06-26T00:10:17;101239.0;;;29.0;45.12
64019;BME280;66942;52.138;5.216;2023-06-26T00:11:53;101238.0;;;29.01;45.07
64019;BME280;66942;52.138;5.216;2023-06-26T00:13:29;101239.0;;;29.05;44.91
64019;BME280;66942;52.138;5.216;2023-06-26T00:16:43;101241.0;;;28.99;44.93
64019;BME280;66942;52.138;5.216;2023-06-26T00:18:19;101241.0;;;29.08;44.87
64019;BME280;66942;52.138;5.216;2023-06-26T00:19:55;101235.0;;;29.09;45.2
64019;BME280;66942;52.138;5.216;2023-06-26T00:23:11;101230.0;;;29.0;45.13
64019;BME280;66942;52.138;5.216;2023-06-26T00:24:48;101222.0;;;29.26;44.16
64019;BME280;66942;52.138;5.216;2023-06-26T00:26:25;101221.0;;;29.21;44.31
64019;BME280;66942;52.138;5.216;2023-06-26T00:28:02;101222.0;;;29.12;44.97
64019;BME280;66942;52.138;5.216;2023-06-26T00:31:15;101220.0;;;29.05;45.0
64019;BME280;66942;52.138;5.216;2023-06-26T00:32:51;101215.0;;;29.04;44.85
64019;BME280;66942;52.138;5.216;2023-06-26T00:34:27;101212.0;;;28.99;45.19
64019;BME280;66942;52.138;5.216;2023-06-26T00:37:40;101213.0;;;28.97;45.11
64019;BME280;66942;52.138;5.216;2023-06-26T00:39:16;101210.0;;;29.05;44.65
64019;BME280;66942;52.138;5.216;2023-06-26T00:40:53;101208.0;;;29.04;44.56
64019;BME280;66942;52.138;5.216;2023-06-26T00:42:29;101209.0;;;29.02;44.63
64019;BME280;66942;52.138;5.216;2023-06-26T00:45:42;101202.0;;;28.93;44.82
64019;BME280;66942;52.138;5.216;2023-06-26T00:47:18;101201.0;;;28.97;44.68
64019;BME280;66942;52.138;5.216;2023-06-26T00:48:55;101208.0;;;28.9;44.97
64019;BME280;66942;52.138;5.216;2023-06-26T00:52:11;101210.0;;;28.85;45.0
64019;BME280;66942;52.138;5.216;2023-06-26T00:53:48;101224.0;;;28.88;45.28
64019;BME280;66942;52.138;5.216;2023-06-26T00:55:25;101232.0;;;28.94;45.39
64019;BME280;66942;52.138;5.216;2023-06-26T00:58:40;101231.0;;;28.93;45.43
64019;BME280;66942;52.138;5.216;2023-06-26T01:00:17;101234.0;;;28.91;45.28
64019;BME280;66942;52.138;5.216;2023-06-26T01:01:54;101235.0;;;28.91;45.34
64019;BME280;66942;52.138;5.216;2023-06-26T01:03:30;101243.0;;;29.01;45.22
64019;BME280;66942;52.138;5.216;2023-06-26T01:06:45;101242.0;;;28.96;45.2
64019;BME280;66942;52.138;5.216;2023-06-26T01:08:22;101237.0;;;28.91;45.22
64019;BME280;66942;52.138;5.216;2023-06-26T01:10:00;101238.0;;;29.08;44.69
64019;BME280;66942;52.138;5.216;2023-06-26T01:13:14;101242.0;;;29.09;44.49
64019;BME280;66942;52.138;5.216;2023-06-26T01:14:51;101244.0;;;29.11;44.46
64019;BME280;66942;52.138;5.216;2023-06-26T01:16:29;101240.0;;;29.29;44.04
64019;BME280;66942;52.138;5.216;2023-06-26T01:18:06;101249.0;;;29.19;44.29
64019;BME280;66942;52.138;5.216;2023-06-26T01:21:20;101255.0;;;29.29;43.94
64019;BME280;66942;52.138;5.216;2023-06-26T01:23:03;101261.0;;;29.23;44.25
64019;BME280;66942;52.138;5.216;2023-06-26T01:24:53;101252.0;;;29.33;44.07
64019;BME280;66942;52.138;5.216;2023-06-26T01:26:38;101262.0;;;29.45;43.59
64019;BME280;66942;52.138;5.216;2023-06-26T01:29:55;101265.0;;;29.53;43.22
64019;BME280;66942;52.138;5.216;2023-06-26T01:31:32;101270.0;;;29.56;42.21
64019;BME280;66942;52.138;5.216;2023-06-26T01:33:11;101268.0;;;29.52;42.62
64019;BME280;66942;52.138;5.216;2023-06-26T01:34:49;101266.0;;;29.6;42.05
64019;BME280;66942;52.138;5.216;2023-06-26T01:38:13;101268.0;;;29.62;41.78
64019;BME280;66942;52.138;5.216;2023-06-26T01:39:52;101268.0;;;29.69;41.22
64019;BME280;66942;52.138;5.216;2023-06-26T01:41:28;101266.0;;;29.63;41.7
64019;BME280;66942;52.138;5.216;2023-06-26T01:44:52;101266.0;;;29.74;41.14
64019;BME280;66942;52.138;5.216;2023-06-26T01:46:37;101257.0;;;29.57;40.51
64019;BME280;66942;52.138;5.216;2023-06-26T01:48:23;101258.0;;;29.64;40.64
64019;BME280;66942;52.138;5.216;2023-06-26T01:50:06;101261.0;;;29.69;41.05
64019;BME280;66942;52.138;5.216;2023-06-26T01:51:47;101261.0;;;29.69;41.1
64019;BME280;66942;52.138;5.216;2023-06-26T01:55:19;101260.0;;;29.65;41.23
64019;BME280;66942;52.138;5.216;2023-06-26T01:57:04;101258.0;;;29.75;41.13
64019;BME280;66942;52.138;5.216;2023-06-26T01:58:44;101263.0;;;29.7;41.25
64019;BME280;66942;52.138;5.216;2023-06-26T02:00:23;101262.0;;;29.77;41.13
64019;BME280;66942;52.138;5.216;2023-06-26T02:02:00;101268.0;;;29.72;41.64
64019;BME280;66942;52.138;5.216;2023-06-26T02:05:14;101271.0;;;29.75;41.22
64019;BME280;66942;52.138;5.216;2023-06-26T02:06:50;101267.0;;;29.76;41.26
64019;BME280;66942;52.138;5.216;2023-06-26T02:08:27;101262.0;;;29.77;41.14
64019;BME280;66942;52.138;5.216;2023-06-26T02:11:42;101268.0;;;29.8;41.02
64019;BME280;66942;52.138;5.216;2023-06-26T02:13:18;101262.0;;;29.76;40.86
64019;BME280;66942;52.138;5.216;2023-06-26T02:14:55;101259.0;;;29.79;40.68
64019;BME280;66942;52.138;5.216;2023-06-26T02:18:08;101263.0;;;29.73;41.18
64019;BME280;66942;52.138;5.216;2023-06-26T02:19:44;101265.0;;;29.67;41.0
64019;BME280;66942;52.138;5.216;2023-06-26T02:21:20;101271.0;;;29.52;41.45
64019;BME280;66942;52.138;5.216;2023-06-26T02:22:56;101280.0;;;29.59;41.62
64019;BME280;66942;52.138;5.216;2023-06-26T02:26:08;101278.0;;;29.54;41.82
64019;BME280;66942;52.138;5.216;2023-06-26T02:27:44;101274.0;;;29.56;42.05
64019;BME280;66942;52.138;5.216;2023-06-26T02:29:21;101273.0;;;29.64;41.59
64019;BME280;66942;52.138;5.216;2023-06-26T02:32:33;101283.0;;;29.57;41.87
64019;BME280;66942;52.138;5.216;2023-06-26T02:34:09;101284.0;;;29.53;41.97
64019;BME280;66942;52.138;5.216;2023-06-26T02:35:45;101281.0;;;29.54;42.02
64019;BME280;66942;52.138;5.216;2023-06-26T02:38:59;101280.0;;;29.49;42.06
64019;BME280;66942;52.138;5.216;2023-06-26T02:40:35;101277.0;;;29.55;41.83
64019;BME280;66942;52.138;5.216;2023-06-26T02:42:11;101280.0;;;29.5;42.15
64019;BME280;66942;52.138;5.216;2023-06-26T02:45:25;101291.0;;;29.44;42.42
64019;BME280;66942;52.138;5.216;2023-06-26T02:47:01;101290.0;;;29.43;42.28
64019;BME280;66942;52.138;5.216;2023-06-26T02:48:37;101294.0;;;29.44;42.27
64019;BME280;66942;52.138;5.216;2023-06-26T02:50:14;101280.0;;;29.48;42.16
64019;BME280;66942;52.138;5.216;2023-06-26T02:53:27;101280.0;;;29.52;41.83
64019;BME280;66942;52.138;5.216;2023-06-26T02:55:05;101291.0;;;29.48;42.06
64019;BME280;66942;52.138;5.216;2023-06-26T02:56:41;101297.0;;;29.58;41.72
64019;BME280;66942;52.138;5.216;2023-06-26T02:59:55;101302.0;;;29.48;41.86
64019;BME280;66942;52.138;5.216;2023-06-26T03:01:31;101310.0;;;29.51;42.06
64019;BME280;66942;52.138;5.216;2023-06-26T03:03:08;101305.0;;;29.49;42.1
64019;BME280;66942;52.138;5.216;2023-06-26T03:04:45;101293.0;;;29.49;42.11
64019;BME280;66942;52.138;5.216;2023-06-26T03:07:58;101296.0;;;29.46;41.95
64019;BME280;66942;52.138;5.216;2023-06-26T03:09:34;101301.0;;;29.44;42.12
64019;BME280;66942;52.138;5.216;2023-06-26T03:11:11;101303.0;;;29.5;41.78
64019;BME280;66942;52.138;5.216;2023-06-26T03:14:25;101299.0;;;29.46;41.81
64019;BME280;66942;52.138;5.216;2023-06-26T03:16:03;101301.0;;;29.34;42.12
64019;BME280;66942;52.138;5.216;2023-06-26T03:17:40;101309.0;;;29.36;41.97
64019;BME280;66942;52.138;5.216;2023-06-26T03:20:53;101312.0;;;29.38;42.24
64019;BME280;66942;52.138;5.216;2023-06-26T03:22:32;101305.0;;;29.37;42.03
64019;BME280;66942;52.138;5.216;2023-06-26T03:24:09;101297.0;;;29.2;41.76
64019;BME280;66942;52.138;5.216;2023-06-26T03:25:45;101301.0;;;29.21;41.88
64019;BME280;66942;52.138;5.216;2023-06-26T03:29:00;101310.0;;;29.22;42.03
64019;BME280;66942;52.138;5.216;2023-06-26T03:30:37;101318.0;;;29.19;42.16
64019;BME280;66942;52.138;5.216;2023-06-26T03:32:14;101320.0;;;29.23;42.09
64019;BME280;66942;52.138;5.216;2023-06-26T03:35:27;101312.0;;;29.18;42.38
64019;BME280;66942;52.138;5.216;2023-06-26T03:37:05;101320.0;;;29.28;42.09
64019;BME280;66942;52.138;5.216;2023-06-26T03:38:42;101326.0;;;29.22;41.95
64019;BME280;66942;52.138;5.216;2023-06-26T03:40:19;101330.0;;;29.17;42.12
64019;BME280;66942;52.138;5.216;2023-06-26T03:43:32;101334.0;;;29.14;41.91
64019;BME280;66942;52.138;5.216;2023-06-26T03:45:08;101332.0;;;29.15;41.93
64019;BME280;66942;52.138;5.216;2023-06-26T03:46:44;101331.0;;;29.05;42.23
64019;BME280;66942;52.138;5.216;2023-06-26T03:49:58;101333.0;;;28.98;42.29
64019;BME280;66942;52.138;5.216;2023-06-26T03:51:35;101337.0;;;28.98;42.41
64019;BME280;66942;52.138;5.216;2023-06-26T03:53:11;101338.0;;;29.02;42.39
64019;BME280;66942;52.138;5.216;2023-06-26T03:56:25;101343.0;;;28.94;42.39
64019;BME280;66942;52.138;5.216;2023-06-26T03:58:02;101345.0;;;28.95;42.43
64019;BME280;66942;52.138;5.216;2023-06-26T03:59:40;101343.0;;;28.88;42.46
64019;BME280;66942;52.138;5.216;2023-06-26T04:01:16;101349.0;;;28.81;42.47
64019;BME280;66942;52.138;5.216;2023-06-26T04:04:30;101348.0;;;28.88;42.45
64019;BME280;66942;52.138;5.216;2023-06-26T04:06:06;101348.0;;;28.91;42.25
64019;BME280;66942;52.138;5.216;2023-06-26T04:07:43;101351.0;;;28.8;42.69
64019;BME280;66942;52.138;5.216;2023-06-26T04:10:55;101353.0;;;28.74;42.78
64019;BME280;66942;52.138;5.216;2023-06-26T04:12:32;101353.0;;;28.69;42.85
64019;BME280;66942;52.138;5.216;2023-06-26T04:14:10;101349.0;;;28.64;42.78
64019;BME280;66942;52.138;5.216;2023-06-26T04:17:23;101353.0;;;28.62;42.92
64019;BME280;66942;52.138;5.216;2023-06-26T04:19:00;101355.0;;;28.64;42.8
64019;BME280;66942;52.138;5.216;2023-06-26T04:20:39;101352.0;;;28.59;42.64
64019;BME280;66942;52.138;5.216;2023-06-26T04:22:15;101361.0;;;28.61;42.46
64019;BME280;66942;52.138;5.216;2023-06-26T04:25:29;101365.0;;;28.58;42.62
64019;BME280;66942;52.138;5.216;2023-06-26T04:27:05;101367.0;;;28.63;42.51
64019;BME280;66942;52.138;5.216;2023-06-26T04:28:42;101367.0;;;28.58;42.44
64019;BME280;66942;52.138;5.216;2023-06-26T04:31:57;101374.0;;;28.55;42.5
64019;BME280;66942;52.138;5.216;2023-06-26T04:33:33;101376.0;;;28.52;42.6
64019;BME280;66942;52.138;5.216;2023-06-26T04:35:10;101375.0;;;28.62;42.43
64019;BME280;66942;52.138;5.216;2023-06-26T04:38:24;101380.0;;;28.63;42.84
64019;BME280;66942;52.138;5.216;2023-06-26T04:40:00;101388.0;;;28.58;42.84
64019;BME280;66942;52.138;5.216;2023-06-26T04:41:37;101389.0;;;28.64;42.16
64019;BME280;66942;52.138;5.216;2023-06-26T04:43:14;101392.0;;;28.7;42.11
64019;BME280;66942;52.138;5.216;2023-06-26T04:46:28;101402.0;;;28.62;42.04
64019;BME280;66942;52.138;5.216;2023-06-26T04:48:05;101407.0;;;28.68;42.02
64019;BME280;66942;52.138;5.216;2023-06-26T04:49:42;101406.0;;;28.54;42.08
64019;BME280;66942;52.138;5.216;2023-06-26T04:52:54;101398.0;;;28.55;41.93
64019;BME280;66942;52.138;5.216;2023-06-26T04:54:31;101407.0;;;28.73;41.9
64019;BME280;66942;52.138;5.216;2023-06-26T04:56:07;101416.0;;;28.66;41.83
64019;BME280;66942;52.138;5.216;2023-06-26T04:57:43;101413.0;;;28.76;41.75
64019;BME280;66942;52.138;5.216;2023-06-26T05:00:56;101416.0;;;28.8;41.43
64019;BME280;66942;52.138;5.216;2023-06-26T05:02:33;101414.0;;;28.82;41.01
64019;BME280;66942;52.138;5.216;2023-06-26T05:04:10;101416.0;;;28.75;41.31
64019;BME280;66942;52.138;5.216;2023-06-26T05:07:25;101411.0;;;28.68;41.69
64019;BME280;66942;52.138;5.216;2023-06-26T05:09:02;101420.0;;;28.78;41.45
64019;BME280;66942;52.138;5.216;2023-06-26T05:10:39;101425.0;;;28.85;41.19
64019;BME280;66942;52.138;5.216;2023-06-26T05:13:52;101430.0;;;28.84;41.48
64019;BME280;66942;52.138;5.216;2023-06-26T05:15:29;101430.0;;;28.78;41.34
64019;BME280;66942;52.138;5.216;2023-06-26T05:17:06;101425.0;;;28.92;41.39
64019;BME280;66942;52.138;5.216;2023-06-26T05:18:43;101431.0;;;28.96;41.61
64019;BME280;66942;52.138;5.216;2023-06-26T05:21:58;101428.0;;;29.04;40.89
64019;BME280;66942;52.138;5.216;2023-06-26T05:23:37;101432.0;;;29.16;40.47
64019;BME280;66942;52.138;5.216;2023-06-26T05:25:14;101431.0;;;29.26;40.46
64019;BME280;66942;52.138;5.216;2023-06-26T05:28:29;101436.0;;;29.44;40.06
64019;BME280;66942;52.138;5.216;2023-06-26T05:30:07;101436.0;;;29.62;40.0
64019;BME280;66942;52.138;5.216;2023-06-26T05:31:45;101437.0;;;29.56;39.53
64019;BME280;66942;52.138;5.216;2023-06-26T05:33:26;101435.0;;;29.7;39.9
64019;BME280;66942;52.138;5.216;2023-06-26T05:36:42;101444.0;;;29.78;39.46
64019;BME280;66942;52.138;5.216;2023-06-26T05:38:19;101449.0;;;29.83;39.06
64019;BME280;66942;52.138;5.216;2023-06-26T05:39:57;101449.0;;;29.82;38.94
64019;BME280;66942;52.138;5.216;2023-06-26T05:43:11;101451.0;;;29.96;38.54
64019;BME280;66942;52.138;5.216;2023-06-26T05:44:48;101458.0;;;30.05;38.35
64019;BME280;66942;52.138;5.216;2023-06-26T05:46:24;101456.0;;;30.05;38.53
64019;BME280;66942;52.138;5.216;2023-06-26T05:48:01;101459.0;;;30.11;38.42
64019;BME280;66942;52.138;5.216;2023-06-26T05:51:16;101469.0;;;30.14;38.28
64019;BME280;66942;52.138;5.216;2023-06-26T05:52:53;101474.0;;;30.04;38.31
64019;BME280;66942;52.138;5.216;2023-06-26T05:54:31;101476.0;;;30.17;38.21
64019;BME280;66942;52.138;5.216;2023-06-26T05:57:46;101480.0;;;30.18;37.74
64019;BME280;66942;52.138;5.216;2023-06-26T05:59:23;101481.0;;;30.2;38.06
64019;BME280;66942;52.138;5.216;2023-06-26T06:01:00;101488.0;;;30.18;38.21
64019;BME280;66942;52.138;5.216;2023-06-26T06:02:38;101496.0;;;30.32;37.57
64019;BME280;66942;52.138;5.216;2023-06-26T06:05:51;101494.0;;;30.26;37.83
64019;BME280;66942;52.138;5.216;2023-06-26T06:07:27;101496.0;;;30.42;37.47
64019;BME280;66942;52.138;5.216;2023-06-26T06:09:03;101499.0;;;30.43;37.1
64019;BME280;66942;52.138;5.216;2023-06-26T06:12:17;101503.0;;;30.36;37.67
64019;BME280;66942;52.138;5.216;2023-06-26T06:13:54;101507.0;;;30.36;37.11
64019;BME280;66942;52.138;5.216;2023-06-26T06:15:30;101510.0;;;30.5;37.21
64019;BME280;66942;52.138;5.216;2023-06-26T06:18:45;101510.0;;;30.43;36.9
64019;BME280;66942;52.138;5.216;2023-06-26T06:20:22;101513.0;;;30.35;37.39
64019;BME280;66942;52.138;5.216;2023-06-26T06:21:59;101519.0;;;30.51;37.93
64019;BME280;66942;52.138;5.216;2023-06-26T06:23:35;101521.0;;;30.58;37.11
64019;BME280;66942;52.138;5.216;2023-06-26T06:26:50;101518.0;;;30.65;37.17
64019;BME280;66942;52.138;5.216;2023-06-26T06:28:27;101523.0;;;30.62;37.0
64019;BME280;66942;52.138;5.216;2023-06-26T06:30:05;101528.0;;;30.47;36.6
64019;BME280;66942;52.138;5.216;2023-06-26T06:33:18;101533.0;;;30.31;36.53
64019;BME280;66942;52.138;5.216;2023-06-26T06:34:55;101551.0;;;30.55;36.71
64019;BME280;66942;52.138;5.216;2023-06-26T06:36:33;101550.0;;;30.36;36.39
64019;BME280;66942;52.138;5.216;2023-06-26T06:38:10;101552.0;;;30.22;36.86
64019;BME280;66942;52.138;5.216;2023-06-26T06:41:23;101551.0;;;30.11;36.82
64019;BME280;66942;52.138;5.216;2023-06-26T06:43:00;101561.0;;;30.29;37.49
64019;BME280;66942;52.138;5.216;2023-06-26T06:44:38;101555.0;;;30.31;36.99
64019;BME280;66942;52.138;5.216;2023-06-26T06:47:50;101568.0;;;30.34;37.29
64019;BME280;66942;52.138;5.216;2023-06-26T06:49:27;101564.0;;;30.12;37.6
64019;BME280;66942;52.138;5.216;2023-06-26T06:51:04;101569.0;;;29.94;37.64
64019;BME280;66942;52.138;5.216;2023-06-26T06:54:19;101566.0;;;30.15;37.86
64019;BME280;66942;52.138;5.216;2023-06-26T06:55:56;101559.0;;;29.94;38.24
64019;BME280;66942;52.138;5.216;2023-06-26T06:57:34;101569.0;;;30.08;38.17
64019;BME280;66942;52.138;5.216;2023-06-26T06:59:12;101566.0;;;30.0;37.86
64019;BME280;66942;52.138;5.216;2023-06-26T07:02:27;101572.0;;;29.95;38.29
64019;BME280;66942;52.138;5.216;2023-06-26T07:04:03;101571.0;;;29.81;38.15
64019;BME280;66942;52.138;5.216;2023-06-26T07:05:41;101571.0;;;30.1;37.62
64019;BME280;66942;52.138;5.216;2023-06-26T07:08:54;101578.0;;;29.9;37.49
64019;BME280;66942;52.138;5.216;2023-06-26T07:10:31;101583.0;;;30.03;37.36
64019;BME280;66942;52.138;5.216;2023-06-26T07:12:08;101583.0;;;30.02;37.97
64019;BME280;66942;52.138;5.216;2023-06-26T07:13:45;101580.0;;;30.25;37.86
64019;BME280;66942;52.138;5.216;2023-06-26T07:16:59;101595.0;;;30.38;37.74
64019;BME280;66942;52.138;5.216;2023-06-26T07:18:37;101594.0;;;30.41;37.58
64019;BME280;66942;52.138;5.216;2023-06-26T07:20:13;101596.0;;;30.5;36.9
64019;BME280;66942;52.138;5.216;2023-06-26T07:23:27;101601.0;;;30.43;36.39
64019;BME280;66942;52.138;5.216;2023-06-26T07:25:03;101592.0;;;30.64;36.42
64019;BME280;66942;52.138;5.216;2023-06-26T07:26:40;101585.0;;;30.32;37.32
64019;BME280;66942;52.138;5.216;2023-06-26T07:29:54;101594.0;;;30.63;37.15
64019;BME280;66942;52.138;5.216;2023-06-26T07:31:31;101594.0;;;30.75;37.31
64019;BME280;66942;52.138;5.216;2023-06-26T07:33:08;101597.0;;;30.84;36.71
64019;BME280;66942;52.138;5.216;2023-06-26T07:34:45;101603.0;;;30.82;36.81
64019;BME280;66942;52.138;5.216;2023-06-26T07:37:59;101606.0;;;30.95;36.49
64019;BME280;66942;52.138;5.216;2023-06-26T07:39:36;101605.0;;;30.96;36.07
64019;BME280;66942;52.138;5.216;2023-06-26T07:41:14;101613.0;;;31.04;36.0
64019;BME280;66942;52.138;5.216;2023-06-26T07:44:27;101618.0;;;31.08;35.31
64019;BME280;66942;52.138;5.216;2023-06-26T07:46:04;101615.0;;;31.1;35.29
64019;BME280;66942;52.138;5.216;2023-06-26T07:47:41;101619.0;;;31.06;35.78
64019;BME280;66942;52.138;5.216;2023-06-26T07:49:19;101623.0;;;31.59;35.29
64019;BME280;66942;52.138;5.216;2023-06-26T07:52:32;101630.0;;;31.88;35.1
64019;BME280;66942;52.138;5.216;2023-06-26T07:54:10;101628.0;;;32.17;34.69
64019;BME280;66942;52.138;5.216;2023-06-26T07:55:47;101632.0;;;32.39;33.42
64019;BME280;66942;52.138;5.216;2023-06-26T07:59:02;101632.0;;;32.54;33.44
64019;BME280;66942;52.138;5.216;2023-06-26T08:00:40;101627.0;;;32.67;32.78
64019;BME280;66942;52.138;5.216;2023-06-26T08:02:16;101624.0;;;32.65;32.28
64019;BME280;66942;52.138;5.216;2023-06-26T08:03:54;101630.0;;;32.79;32.54
64019;BME280;66942;52.138;5.216;2023-06-26T08:07:06;101630.0;;;32.81;32.64
64019;BME280;66942;52.138;5.216;2023-06-26T08:08:43;101635.0;;;32.65;32.25
64019;BME280;66942;52.138;5.216;2023-06-26T08:10:20;101633.0;;;32.57;32.19
64019;BME280;66942;52.138;5.216;2023-06-26T08:13:36;101633.0;;;32.57;32.28
64019;BME280;66942;52.138;5.216;2023-06-26T08:15:12;101641.0;;;32.47;32.83
64019;BME280;66942;52.138;5.216;2023-06-26T08:16:49;101639.0;;;32.5;32.29
64019;BME280;66942;52.138;5.216;2023-06-26T08:20:03;101646.0;;;32.49;32.58
64019;BME280;66942;52.138;5.216;2023-06-26T08:21:40;101653.0;;;32.57;31.66
64019;BME280;66942;52.138;5.216;2023-06-26T08:23:17;101659.0;;;32.46;31.3
64019;BME280;66942;52.138;5.216;2023-06-26T08:24:53;101656.0;;;32.62;31.53
64019;BME280;66942;52.138;5.216;2023-06-26T08:28:07;101656.0;;;32.71;31.27
64019;BME280;66942;52.138;5.216;2023-06-26T08:29:44;101657.0;;;32.67;31.14
64019;BME280;66942;52.138;5.216;2023-06-26T08:31:21;101660.0;;;32.64;30.82
64019;BME280;66942;52.138;5.216;2023-06-26T08:34:35;101659.0;;;32.39;31.18
64019;BME280;66942;52.138;5.216;2023-06-26T08:36:12;101667.0;;;31.93;31.41
64019;BME280;66942;52.138;5.216;2023-06-26T08:37:49;101665.0;;;32.26;31.56
64019;BME280;66942;52.138;5.216;2023-06-26T08:41:02;101670.0;;;31.84;31.6
64019;BME280;66942;52.138;5.216;2023-06-26T08:42:39;101665.0;;;32.28;31.81
64019;BME280;66942;52.138;5.216;2023-06-26T08:44:16;101666.0;;;32.53;32.65
64019;BME280;66942;52.138;5.216;2023-06-26T08:45:53;101671.0;;;32.35;31.56
64019;BME280;66942;52.138;5.216;2023-06-26T08:49:14;101672.0;;;32.24;31.08
64019;BME280;66942;52.138;5.216;2023-06-26T08:50:56;101680.0;;;32.32;30.99
64019;BME280;66942;52.138;5.216;2023-06-26T08:52:39;101673.0;;;32.01;31.01
64019;BME280;66942;52.138;5.216;2023-06-26T08:54:22;101677.0;;;31.98;31.23
64019;BME280;66942;52.138;5.216;2023-06-26T08:57:43;101676.0;;;32.03;30.98
64019;BME280;66942;52.138;5.216;2023-06-26T08:59:21;101687.0;;;31.86;31.29
64019;BME280;66942;52.138;5.216;2023-06-26T09:00:57;101694.0;;;31.93;30.94
64019;BME280;66942;52.138;5.216;2023-06-26T09:02:37;101700.0;;;31.88;31.44
64019;BME280;66942;52.138;5.216;2023-06-26T09:05:51;101698.0;;;31.6;31.64
64019;BME280;66942;52.138;5.216;2023-06-26T09:07:29;101700.0;;;31.55;31.76
64019;BME280;66942;52.138;5.216;2023-06-26T09:09:06;101700.0;;;31.23;31.92
64019;BME280;66942;52.138;5.216;2023-06-26T09:12:21;101697.0;;;30.98;32.11
64019;BME280;66942;52.138;5.216;2023-06-26T09:13:58;101696.0;;;31.09;32.6
64019;BME280;66942;52.138;5.216;2023-06-26T09:15:39;101703.0;;;30.94;32.32
64019;BME280;66942;52.138;5.216;2023-06-26T09:17:17;101710.0;;;31.44;32.31
64019;BME280;66942;52.138;5.216;2023-06-26T09:20:31;101711.0;;;31.57;31.93
64019;BME280;66942;52.138;5.216;2023-06-26T09:22:11;101711.0;;;31.75;31.94
64019;BME280;66942;52.138;5.216;2023-06-26T09:23:50;101710.0;;;31.77;31.71
64019;BME280;66942;52.138;5.216;2023-06-26T09:27:04;101712.0;;;31.98;31.95
64019;BME280;66942;52.138;5.216;2023-06-26T09:28:42;101723.0;;;32.28;31.11
64019;BME280;66942;52.138;5.216;2023-06-26T09:30:19;101730.0;;;32.32;30.88
64019;BME280;66942;52.138;5.216;2023-06-26T09:31:56;101723.0;;;32.35;30.39
64019;BME280;66942;52.138;5.216;2023-06-26T09:35:14;101720.0;;;32.55;31.56
64019;BME280;66942;52.138;5.216;2023-06-26T09:36:53;101720.0;;;32.6;29.73
64019;BME280;66942;52.138;5.216;2023-06-26T09:38:30;101723.0;;;32.53;29.67
64019;BME280;66942;52.138;5.216;2023-06-26T09:41:45;101735.0;;;32.61;29.58
64019;BME280;66942;52.138;5.216;2023-06-26T09:43:22;101733.0;;;32.69;29.64
64019;BME280;66942;52.138;5.216;2023-06-26T09:44:59;101739.0;;;32.5;29.78
64019;BME280;66942;52.138;5.216;2023-06-26T09:46:38;101741.0;;;32.65;29.35
64019;BME280;66942;52.138;5.216;2023-06-26T09:49:51;101748.0;;;32.56;29.31
64019;BME280;66942;52.138;5.216;2023-06-26T09:51:29;101747.0;;;32.57;29.52
64019;BME280;66942;52.138;5.216;2023-06-26T09:53:08;101748.0;;;32.61;29.38
64019;BME280;66942;52.138;5.216;2023-06-26T09:56:22;101746.0;;;32.6;28.84
64019;BME280;66942;52.138;5.216;2023-06-26T09:58:00;101752.0;;;32.11;29.42
64019;BME280;66942;52.138;5.216;2023-06-26T09:59:39;101755.0;;;32.17;28.84
64019;BME280;66942;52.138;5.216;2023-06-26T10:01:17;101760.0;;;32.25;29.48
64019;BME280;66942;52.138;5.216;2023-06-26T10:04:32;101773.0;;;32.32;28.53
64019;BME280;66942;52.138;5.216;2023-06-26T10:06:11;101771.0;;;32.53;28.69
64019;BME280;66942;52.138;5.216;2023-06-26T10:07:48;101758.0;;;31.65;28.76
64019;BME280;66942;52.138;5.216;2023-06-26T10:09:25;101767.0;;;32.03;28.29
64019;BME280;66942;52.138;5.216;2023-06-26T10:12:40;101780.0;;;32.11;29.11
64019;BME280;66942;52.138;5.216;2023-06-26T10:14:22;101772.0;;;31.93;28.76
64019;BME280;66942;52.138;5.216;2023-06-26T10:16:03;101778.0;;;32.12;28.82
64019;BME280;66942;52.138;5.216;2023-06-26T10:19:22;101778.0;;;31.59;28.84
64019;BME280;66942;52.138;5.216;2023-06-26T10:21:01;101781.0;;;32.08;29.08
64019;BME280;66942;52.138;5.216;2023-06-26T10:22:42;101790.0;;;32.07;29.2
64019;BME280;66942;52.138;5.216;2023-06-26T10:24:20;101795.0;;;31.69;29.07
64019;BME280;66942;52.138;5.216;2023-06-26T10:27:41;101785.0;;;31.91;28.91
64019;BME280;66942;52.138;5.216;2023-06-26T10:29:20;101802.0;;;32.11;29.04
64019;BME280;66942;52.138;5.216;2023-06-26T10:31:00;101790.0;;;31.28;27.42
64019;BME280;66942;52.138;5.216;2023-06-26T10:32:39;101796.0;;;31.42;27.42
64019;BME280;66942;52.138;5.216;2023-06-26T10:36:13;101809.0;;;31.45;28.71
64019;BME280;66942;52.138;5.216;2023-06-26T10:37:50;101798.0;;;31.32;28.25
64019;BME280;66942;52.138;5.216;2023-06-26T10:39:27;101791.0;;;31.74;28.99
64019;BME280;66942;52.138;5.216;2023-06-26T10:41:23;101800.0;;;31.8;28.76
64019;BME280;66942;52.138;5.216;2023-06-26T10:43:09;101793.0;;;31.85;28.22
64019;BME280;66942;52.138;5.216;2023-06-26T10:46:25;101800.0;;;32.0;28.32
64019;BME280;66942;52.138;5.216;2023-06-26T10:48:03;101801.0;;;31.46;28.81
64019;BME280;66942;52.138;5.216;2023-06-26T10:49:46;101800.0;;;31.68;28.92
64019;BME280;66942;52.138;5.216;2023-06-26T10:51:24;101806.0;;;31.93;27.98
64019;BME280;66942;52.138;5.216;2023-06-26T10:55:00;101805.0;;;31.67;27.92
64019;BME280;66942;52.138;5.216;2023-06-26T10:56:42;101808.0;;;31.95;28.14
64019;BME280;66942;52.138;5.216;2023-06-26T10:58:41;101813.0;;;31.95;27.44
64019;BME280;66942;52.138;5.216;2023-06-26T11:00:19;101812.0;;;31.63;28.43
64019;BME280;66942;52.138;5.216;2023-06-26T11:01:59;101811.0;;;31.81;28.94
64019;BME280;66942;52.138;5.216;2023-06-26T11:05:24;101814.0;;;31.78;28.77
64019;BME280;66942;52.138;5.216;2023-06-26T11:07:15;101832.0;;;31.88;29.59